createdAt,value
2018-05-09T00:00:38.433Z,46.93
2018-05-09T00:01:38.406Z,46.64
2018-05-09T00:02:38.389Z,47.03
2018-05-09T00:03:38.356Z,47.10
2018-05-09T00:04:38.333Z,46.81
2018-05-09T00:05:38.317Z,47.10
2018-05-09T00:06:38.287Z,46.72
2018-05-09T00:07:38.263Z,47.00
2018-05-09T00:08:38.245Z,47.97
2018-05-09T00:09:38.219Z,48.08
2018-05-09T00:10:38.202Z,46.62
2018-05-09T00:11:38.172Z,46.91
2018-05-09T00:12:38.156Z,46.06
2018-05-09T00:13:38.131Z,46.72
2018-05-09T00:14:38.224Z,48.35
2018-05-09T00:15:38.079Z,50.59
2018-05-09T00:16:38.057Z,49.05
2018-05-09T00:17:38.041Z,49.72
2018-05-09T00:18:38.010Z,49.53
2018-05-09T00:19:37.991Z,47.68
2018-05-09T00:20:37.963Z,47.97
2018-05-09T00:21:37.942Z,49.41
2018-05-09T00:22:37.920Z,47.89
2018-05-09T00:23:37.898Z,46.84
2018-05-09T00:24:37.874Z,47.10
2018-05-09T00:25:37.847Z,46.64
2018-05-09T00:26:37.835Z,47.39
2018-05-09T00:27:37.811Z,49.22
2018-05-09T00:28:37.780Z,49.15
2018-05-09T00:29:37.766Z,46.91
2018-05-09T00:30:37.733Z,47.20
2018-05-09T00:31:37.717Z,48.74
2018-05-09T00:32:37.695Z,47.80
2018-05-09T00:33:37.672Z,48.07
2018-05-09T00:34:37.649Z,47.00
2018-05-09T00:35:37.619Z,48.74
2018-05-09T00:36:37.606Z,48.93
2018-05-09T00:37:37.575Z,49.51
2018-05-09T00:38:37.551Z,50.68
2018-05-09T00:39:37.529Z,49.53
2018-05-09T00:40:37.509Z,49.02
2018-05-09T00:41:37.561Z,50.46
2018-05-09T00:42:37.464Z,50.87
2018-05-09T00:43:37.436Z,50.10
2018-05-09T00:44:37.419Z,48.18
2018-05-09T00:45:37.394Z,49.82
2018-05-09T00:46:37.367Z,50.30
2018-05-09T00:47:37.353Z,51.26
2018-05-09T00:48:37.319Z,50.18
2018-05-09T00:49:37.297Z,52.10
2018-05-09T00:50:37.272Z,51.07
2018-05-09T00:51:37.257Z,49.91
2018-05-09T00:52:37.235Z,50.66
2018-05-09T00:53:37.205Z,50.56
2018-05-09T00:54:37.191Z,50.49
2018-05-09T00:55:37.156Z,50.46
2018-05-09T00:56:37.143Z,51.23
2018-05-09T00:57:37.114Z,52.29
2018-05-09T00:58:37.097Z,50.56
2018-05-09T00:59:37.073Z,49.69
2018-05-09T01:00:37.049Z,50.56
2018-05-09T01:01:37.029Z,49.31
2018-05-09T01:02:36.997Z,50.56
2018-05-09T01:03:36.978Z,50.18
2018-05-09T01:04:36.955Z,51.33
2018-05-09T01:05:36.936Z,52.48
2018-05-09T01:06:36.914Z,50.37
2018-05-09T01:07:36.890Z,49.89
2018-05-09T01:08:36.880Z,51.23
2018-05-09T01:09:36.842Z,49.99
2018-05-09T01:10:36.811Z,50.56
2018-05-09T01:11:36.796Z,52.48
2018-05-09T01:12:36.770Z,50.66
2018-05-09T01:13:36.745Z,51.43
2018-05-09T01:14:36.724Z,51.43
2018-05-09T01:15:36.696Z,51.23
2018-05-09T01:16:36.681Z,53.64
2018-05-09T01:17:36.656Z,53.74
2018-05-09T01:18:36.628Z,51.62
2018-05-09T01:19:36.612Z,52.10
2018-05-09T01:20:36.583Z,51.62
2018-05-09T01:21:36.560Z,51.33
2018-05-09T01:22:36.539Z,53.03
2018-05-09T01:23:36.513Z,52.39
2018-05-09T01:24:36.497Z,53.83
2018-05-09T01:25:36.470Z,54.02
2018-05-09T01:26:36.447Z,55.08
2018-05-09T01:27:36.421Z,55.18
2018-05-09T01:28:36.403Z,54.77
2018-05-09T01:29:36.379Z,53.16
2018-05-09T01:30:36.351Z,55.56
2018-05-09T01:31:36.335Z,53.45
2018-05-09T01:32:36.308Z,54.60
2018-05-09T01:33:36.283Z,52.10
2018-05-09T01:34:36.261Z,53.35
2018-05-09T01:35:36.242Z,52.48
2018-05-09T01:36:36.212Z,53.16
2018-05-09T01:37:36.192Z,53.35
2018-05-09T01:38:36.179Z,52.39
2018-05-09T01:39:36.147Z,52.39
2018-05-09T01:40:36.125Z,52.87
2018-05-09T01:41:36.101Z,53.35
2018-05-09T01:42:36.068Z,51.69
2018-05-09T01:43:36.070Z,53.80
2018-05-09T01:44:36.029Z,53.16
2018-05-09T01:45:36.011Z,53.13
2018-05-09T01:46:35.977Z,52.94
2018-05-09T01:47:35.956Z,54.89
2018-05-09T01:48:35.938Z,53.25
2018-05-09T01:49:35.911Z,53.13
2018-05-09T01:50:35.894Z,52.36
2018-05-09T01:51:35.868Z,52.26
2018-05-09T01:52:35.845Z,51.98
2018-05-09T01:53:35.826Z,52.26
2018-05-09T01:54:35.802Z,51.21
2018-05-09T01:55:35.769Z,52.26
2018-05-09T01:56:35.752Z,52.75
2018-05-09T01:57:35.730Z,52.55
2018-05-09T01:58:35.700Z,52.55
2018-05-09T01:59:35.683Z,53.52
2018-05-09T02:00:35.664Z,54.86
2018-05-09T02:01:35.631Z,54.86
2018-05-09T02:02:35.618Z,53.70
2018-05-09T02:03:35.585Z,53.32
2018-05-09T02:04:35.564Z,54.09
2018-05-09T02:05:35.544Z,54.00
2018-05-09T02:06:35.513Z,53.13
2018-05-09T02:07:35.496Z,54.19
2018-05-09T02:08:35.469Z,54.77
2018-05-09T02:09:35.448Z,53.13
2018-05-09T02:10:35.435Z,53.70
2018-05-09T02:11:35.406Z,54.96
2018-05-09T02:12:35.380Z,54.19
2018-05-09T02:13:35.361Z,53.03
2018-05-09T02:14:35.327Z,54.09
2018-05-09T02:15:35.316Z,55.24
2018-05-09T02:16:35.282Z,53.87
2018-05-09T02:17:35.292Z,54.19
2018-05-09T02:18:35.240Z,53.70
2018-05-09T02:19:35.215Z,53.03
2018-05-09T02:20:35.190Z,53.30
2018-05-09T02:21:35.169Z,55.91
2018-05-09T02:22:35.143Z,57.26
2018-05-09T02:23:35.118Z,55.82
2018-05-09T02:24:35.103Z,54.19
2018-05-09T02:25:35.081Z,54.67
2018-05-09T02:26:35.047Z,53.42
2018-05-09T02:27:35.030Z,54.57
2018-05-09T02:28:35.002Z,54.77
2018-05-09T02:29:34.977Z,54.55
2018-05-09T02:30:34.967Z,54.86
2018-05-09T02:31:34.934Z,54.35
2018-05-09T02:32:34.917Z,55.12
2018-05-09T02:33:34.890Z,54.35
2018-05-09T02:34:34.865Z,53.87
2018-05-09T02:35:34.841Z,54.38
2018-05-09T02:36:34.823Z,55.12
2018-05-09T02:37:34.797Z,55.60
2018-05-09T02:38:34.773Z,55.41
2018-05-09T02:39:34.749Z,54.55
2018-05-09T02:40:34.723Z,54.83
2018-05-09T02:41:34.705Z,54.93
2018-05-09T02:42:34.679Z,55.79
2018-05-09T02:43:34.695Z,53.87
2018-05-09T02:44:34.633Z,53.80
2018-05-09T02:45:34.607Z,53.97
2018-05-09T02:46:34.588Z,53.87
2018-05-09T02:47:34.570Z,53.68
2018-05-09T02:48:34.535Z,53.49
2018-05-09T02:49:34.522Z,53.78
2018-05-09T02:50:34.487Z,55.51
2018-05-09T02:51:34.471Z,56.66
2018-05-09T02:52:34.443Z,55.32
2018-05-09T02:53:34.419Z,53.87
2018-05-09T02:54:34.404Z,53.39
2018-05-09T02:55:34.377Z,53.87
2018-05-09T02:56:34.357Z,54.64
2018-05-09T02:57:34.330Z,54.83
2018-05-09T02:58:34.311Z,55.99
2018-05-09T02:59:34.287Z,55.89
2018-05-09T03:00:34.260Z,54.74
2018-05-09T03:01:34.242Z,55.32
2018-05-09T03:02:34.208Z,56.85
2018-05-09T03:03:34.270Z,56.18
2018-05-09T03:04:34.165Z,57.43
2018-05-09T03:05:34.146Z,55.41
2018-05-09T03:06:34.114Z,54.16
2018-05-09T03:07:34.095Z,57.23
2018-05-09T03:08:34.069Z,54.74
2018-05-09T03:09:34.045Z,53.49
2018-05-09T03:10:34.029Z,53.68
2018-05-09T03:11:34.009Z,53.20
2018-05-09T03:12:33.973Z,53.39
2018-05-09T03:13:33.952Z,53.49
2018-05-09T03:14:33.926Z,53.97
2018-05-09T03:15:33.908Z,53.01
2018-05-09T03:16:33.903Z,52.81
2018-05-09T03:17:33.857Z,56.27
2018-05-09T03:18:33.841Z,54.83
2018-05-09T03:19:33.807Z,55.02
2018-05-09T03:20:33.792Z,56.95
2018-05-09T03:21:33.763Z,55.69
2018-05-09T03:22:33.745Z,55.22
2018-05-09T03:23:33.724Z,56.46
2018-05-09T03:24:33.693Z,54.64
2018-05-09T03:25:33.678Z,55.79
2018-05-09T03:26:33.645Z,54.83
2018-05-09T03:27:33.627Z,55.79
2018-05-09T03:28:33.713Z,54.64
2018-05-09T03:29:33.578Z,57.81
2018-05-09T03:30:33.555Z,57.71
2018-05-09T03:31:33.532Z,57.04
2018-05-09T03:32:33.513Z,55.41
2018-05-09T03:33:33.483Z,56.46
2018-05-09T03:34:33.456Z,57.14
2018-05-09T03:35:33.443Z,57.23
2018-05-09T03:36:33.410Z,57.43
2018-05-09T03:37:33.481Z,57.81
2018-05-09T03:38:33.364Z,57.14
2018-05-09T03:39:33.345Z,56.56
2018-05-09T03:40:33.327Z,57.71
2018-05-09T03:41:33.291Z,56.37
2018-05-09T03:42:33.332Z,56.08
2018-05-09T03:43:33.256Z,55.89
2018-05-09T03:44:33.231Z,56.56
2018-05-09T03:45:33.202Z,55.89
2018-05-09T03:46:33.175Z,56.37
2018-05-09T03:47:33.152Z,55.69
2018-05-09T03:48:33.298Z,55.60
2018-05-09T03:49:33.109Z,56.85
2018-05-09T03:50:33.090Z,57.14
2018-05-09T03:51:33.064Z,54.25
2018-05-09T03:52:33.045Z,54.64
2018-05-09T03:53:33.012Z,55.12
2018-05-09T03:54:32.997Z,54.16
2018-05-09T03:55:32.969Z,54.64
2018-05-09T03:56:32.948Z,54.25
2018-05-09T03:57:32.932Z,54.93
2018-05-09T03:58:32.896Z,55.99
2018-05-09T03:59:32.877Z,55.99
2018-05-09T04:00:32.850Z,55.60
2018-05-09T04:01:32.828Z,55.12
2018-05-09T04:02:32.807Z,53.58
2018-05-09T04:03:32.787Z,54.64
2018-05-09T04:04:32.769Z,52.81
2018-05-09T04:05:32.739Z,54.16
2018-05-09T04:06:32.707Z,55.41
2018-05-09T04:07:32.690Z,54.74
2018-05-09T04:08:32.665Z,55.02
2018-05-09T04:09:33.050Z,55.22
2018-05-09T04:10:32.645Z,57.04
2018-05-09T04:11:32.665Z,54.16
2018-05-09T04:12:32.575Z,56.18
2018-05-09T04:13:32.542Z,56.85
2018-05-09T04:14:32.524Z,53.68
2018-05-09T04:15:32.503Z,55.12
2018-05-09T04:16:32.470Z,54.45
2018-05-09T04:17:32.465Z,54.93
2018-05-09T04:18:32.457Z,55.79
2018-05-09T04:19:32.437Z,55.99
2018-05-09T04:20:32.414Z,55.79
2018-05-09T04:21:32.355Z,53.58
2018-05-09T04:22:32.341Z,54.45
2018-05-09T04:23:32.311Z,54.64
2018-05-09T04:24:32.286Z,52.81
2018-05-09T04:25:32.265Z,52.53
2018-05-09T04:26:32.238Z,52.43
2018-05-09T04:27:32.213Z,53.30
2018-05-09T04:28:32.195Z,55.22
2018-05-09T04:29:32.170Z,55.60
2018-05-09T04:30:32.148Z,54.64
2018-05-09T04:31:32.123Z,54.55
2018-05-09T04:32:32.102Z,55.79
2018-05-09T04:33:32.090Z,57.07
2018-05-09T04:34:32.054Z,56.98
2018-05-09T04:35:32.026Z,54.57
2018-05-09T04:36:32.027Z,54.96
2018-05-09T04:37:31.985Z,55.15
2018-05-09T04:38:31.957Z,54.93
2018-05-09T04:39:31.941Z,55.24
2018-05-09T04:40:31.904Z,54.67
2018-05-09T04:41:31.890Z,54.06
2018-05-09T04:42:31.872Z,54.83
2018-05-09T04:43:31.836Z,56.46
2018-05-09T04:44:31.820Z,55.34
2018-05-09T04:45:31.798Z,55.63
2018-05-09T04:46:31.769Z,56.59
2018-05-09T04:47:31.754Z,55.73
2018-05-09T04:48:31.724Z,55.63
2018-05-09T04:49:31.696Z,54.57
2018-05-09T04:50:31.672Z,57.36
2018-05-09T04:51:31.654Z,54.86
2018-05-09T04:52:31.624Z,54.96
2018-05-09T04:53:31.605Z,55.15
2018-05-09T04:54:31.580Z,55.24
2018-05-09T04:55:31.648Z,55.82
2018-05-09T04:56:31.538Z,55.63
2018-05-09T04:57:31.514Z,55.73
2018-05-09T04:58:31.480Z,56.21
2018-05-09T04:59:31.469Z,57.26
2018-05-09T05:00:31.437Z,56.21
2018-05-09T05:01:31.416Z,55.73
2018-05-09T05:02:31.401Z,54.28
2018-05-09T05:03:31.366Z,55.05
2018-05-09T05:04:31.352Z,54.57
2018-05-09T05:05:31.328Z,54.19
2018-05-09T05:06:31.298Z,54.28
2018-05-09T05:07:31.280Z,57.55
2018-05-09T05:08:31.249Z,59.09
2018-05-09T05:09:31.229Z,55.76
2018-05-09T05:10:31.210Z,55.15
2018-05-09T05:11:31.181Z,56.01
2018-05-09T05:12:31.163Z,55.46
2018-05-09T05:13:31.141Z,54.67
2018-05-09T05:14:31.110Z,56.23
2018-05-09T05:15:31.096Z,57.68
2018-05-09T05:16:31.073Z,57.39
2018-05-09T05:17:31.039Z,58.25
2018-05-09T05:18:31.028Z,55.08
2018-05-09T05:19:30.994Z,56.14
2018-05-09T05:20:30.977Z,57.48
2018-05-09T05:21:30.950Z,59.60
2018-05-09T05:22:30.929Z,58.06
2018-05-09T05:23:30.905Z,57.97
2018-05-09T05:24:30.880Z,57.77
2018-05-09T05:25:30.859Z,57.00
2018-05-09T05:26:30.832Z,56.23
2018-05-09T05:27:30.805Z,58.45
2018-05-09T05:28:30.790Z,58.15
2018-05-09T05:29:30.759Z,58.06
2018-05-09T05:30:30.744Z,55.76
2018-05-09T05:31:30.715Z,57.68
2018-05-09T05:32:30.698Z,59.05
2018-05-09T05:33:30.675Z,54.02
2018-05-09T05:34:30.645Z,56.23
2018-05-09T05:35:30.626Z,56.45
2018-05-09T05:36:30.607Z,57.03
2018-05-09T05:37:30.579Z,58.18
2018-05-09T05:38:30.552Z,57.42
2018-05-09T05:39:30.528Z,58.37
2018-05-09T05:40:30.520Z,57.70
2018-05-09T05:41:30.483Z,56.16
2018-05-09T05:42:30.455Z,57.99
2018-05-09T05:43:30.462Z,57.22
2018-05-09T05:44:30.411Z,58.09
2018-05-09T05:45:30.420Z,56.36
2018-05-09T05:46:30.369Z,55.68
2018-05-09T05:47:30.346Z,57.22
2018-05-09T05:48:30.319Z,57.42
2018-05-09T05:49:30.297Z,57.60
2018-05-09T05:50:30.278Z,57.13
2018-05-09T05:51:30.258Z,57.22
2018-05-09T05:52:30.238Z,58.02
2018-05-09T05:53:30.214Z,57.83
2018-05-09T05:54:30.179Z,58.60
2018-05-09T05:55:30.155Z,57.35
2018-05-09T05:56:30.142Z,56.48
2018-05-09T05:57:30.109Z,56.00
2018-05-09T05:58:30.089Z,57.06
2018-05-09T05:59:30.069Z,57.35
2018-05-09T06:00:30.046Z,57.25
2018-05-09T06:01:30.016Z,56.10
2018-05-09T06:02:30.003Z,56.20
2018-05-09T06:03:29.978Z,55.81
2018-05-09T06:04:29.948Z,56.29
2018-05-09T06:05:29.927Z,56.20
2018-05-09T06:06:29.980Z,56.10
2018-05-09T06:07:29.881Z,52.06
2018-05-09T06:08:29.865Z,51.96
2018-05-09T06:09:29.839Z,53.98
2018-05-09T06:10:29.816Z,54.85
2018-05-09T06:11:29.795Z,54.00
2018-05-09T06:12:29.765Z,52.08
2018-05-09T06:13:29.741Z,54.78
2018-05-09T06:14:29.725Z,56.22
2018-05-09T06:15:29.706Z,55.07
2018-05-09T06:16:29.680Z,54.68
2018-05-09T06:17:29.652Z,53.53
2018-05-09T06:18:29.632Z,56.03
2018-05-09T06:19:29.611Z,55.45
2018-05-09T06:20:29.584Z,56.32
2018-05-09T06:21:29.562Z,54.78
2018-05-09T06:22:29.535Z,56.12
2018-05-09T06:23:29.514Z,56.03
2018-05-09T06:24:29.494Z,56.32
2018-05-09T06:25:29.470Z,56.90
2018-05-09T06:26:29.447Z,57.18
2018-05-09T06:27:29.422Z,57.31
2018-05-09T06:28:29.398Z,55.48
2018-05-09T06:29:29.381Z,56.05
2018-05-09T06:30:29.352Z,56.73
2018-05-09T06:31:29.335Z,55.96
2018-05-09T06:32:29.308Z,54.71
2018-05-09T06:33:29.288Z,56.25
2018-05-09T06:34:29.258Z,55.96
2018-05-09T06:35:29.239Z,56.25
2018-05-09T06:36:29.218Z,55.77
2018-05-09T06:37:29.196Z,55.19
2018-05-09T06:38:29.173Z,55.19
2018-05-09T06:39:29.150Z,53.94
2018-05-09T06:40:29.129Z,53.96
2018-05-09T06:41:29.106Z,53.45
2018-05-09T06:42:29.090Z,55.41
2018-05-09T06:43:29.056Z,53.48
2018-05-09T06:44:29.038Z,53.96
2018-05-09T06:45:29.018Z,54.93
2018-05-09T06:46:28.984Z,54.93
2018-05-09T06:47:28.966Z,53.29
2018-05-09T06:48:28.946Z,53.48
2018-05-09T06:49:28.927Z,53.87
2018-05-09T06:50:28.896Z,53.77
2018-05-09T06:51:28.878Z,55.41
2018-05-09T06:52:28.850Z,53.96
2018-05-09T06:53:28.828Z,53.19
2018-05-09T06:54:28.817Z,50.69
2018-05-09T06:55:28.791Z,52.13
2018-05-09T06:56:28.764Z,52.71
2018-05-09T06:57:28.743Z,52.42
2018-05-09T06:58:28.723Z,49.34
2018-05-09T06:59:28.691Z,47.60
2018-05-09T07:00:28.677Z,47.24
2018-05-09T07:01:28.650Z,50.62
2018-05-09T07:02:28.643Z,50.81
2018-05-09T07:03:28.604Z,48.01
2018-05-09T07:04:28.587Z,47.92
2018-05-09T07:05:28.557Z,50.04
2018-05-09T07:06:28.640Z,48.11
2018-05-09T07:07:28.515Z,49.37
2018-05-09T07:08:28.486Z,48.69
2018-05-09T07:09:28.471Z,48.59
2018-05-09T07:10:28.442Z,50.32
2018-05-09T07:11:28.420Z,48.97
2018-05-09T07:12:28.488Z,48.59
2018-05-09T07:13:28.381Z,50.93
2018-05-09T07:14:28.354Z,47.45
2018-05-09T07:15:28.329Z,46.69
2018-05-09T07:16:28.308Z,47.94
2018-05-09T07:17:28.290Z,50.06
2018-05-09T07:18:28.266Z,47.94
2018-05-09T07:19:28.248Z,47.07
2018-05-09T07:20:28.217Z,48.61
2018-05-09T07:21:28.193Z,49.48
2018-05-09T07:22:28.181Z,48.13
2018-05-09T07:23:28.152Z,46.30
2018-05-09T07:24:28.134Z,48.13
2018-05-09T07:25:28.113Z,46.40
2018-05-09T07:26:28.082Z,45.92
2018-05-09T07:27:28.057Z,45.14
2018-05-09T07:28:28.041Z,45.04
2018-05-09T07:29:28.013Z,46.71
2018-05-09T07:30:27.994Z,47.96
2018-05-09T07:31:27.972Z,46.90
2018-05-09T07:32:27.946Z,46.61
2018-05-09T07:33:27.928Z,46.42
2018-05-09T07:34:27.904Z,47.09
2018-05-09T07:35:27.966Z,49.51
2018-05-09T07:36:27.863Z,46.90
2018-05-09T07:37:27.844Z,49.41
2018-05-09T07:38:27.812Z,47.29
2018-05-09T07:39:27.799Z,44.97
2018-05-09T07:40:27.772Z,44.49
2018-05-09T07:41:27.746Z,45.07
2018-05-09T07:42:27.731Z,44.80
2018-05-09T07:43:27.704Z,46.44
2018-05-09T07:44:27.676Z,46.44
2018-05-09T07:45:27.664Z,46.44
2018-05-09T07:46:27.641Z,45.09
2018-05-09T07:47:27.616Z,46.64
2018-05-09T07:48:27.594Z,46.44
2018-05-09T07:49:27.573Z,47.89
2018-05-09T07:50:27.545Z,47.80
2018-05-09T07:51:27.526Z,47.02
2018-05-09T07:52:27.505Z,47.02
2018-05-09T07:53:27.483Z,46.44
2018-05-09T07:54:27.459Z,47.80
2018-05-09T07:55:27.462Z,46.06
2018-05-09T07:56:27.417Z,46.15
2018-05-09T07:57:27.392Z,45.76
2018-05-09T07:58:27.370Z,46.27
2018-05-09T07:59:27.346Z,46.54
2018-05-09T08:00:27.324Z,47.33
2018-05-09T08:01:27.299Z,44.24
2018-05-09T08:02:27.280Z,44.82
2018-05-09T08:03:27.266Z,43.18
2018-05-09T08:04:27.237Z,42.89
2018-05-09T08:05:27.212Z,45.98
2018-05-09T08:06:27.195Z,43.57
2018-05-09T08:07:27.175Z,42.70
2018-05-09T08:08:27.144Z,43.66
2018-05-09T08:09:27.129Z,45.31
2018-05-09T08:10:27.099Z,45.21
2018-05-09T08:11:27.078Z,44.34
2018-05-09T08:12:27.064Z,45.79
2018-05-09T08:13:27.036Z,46.37
2018-05-09T08:14:27.020Z,46.00
2018-05-09T08:15:26.992Z,44.46
2018-05-09T08:16:26.977Z,44.36
2018-05-09T08:17:26.955Z,43.10
2018-05-09T08:18:26.934Z,45.23
2018-05-09T08:19:26.904Z,42.62
2018-05-09T08:20:26.885Z,41.94
2018-05-09T08:21:26.863Z,42.91
2018-05-09T08:22:26.847Z,44.17
2018-05-09T08:23:26.827Z,43.40
2018-05-09T08:24:26.793Z,45.14
2018-05-09T08:25:26.777Z,46.49
2018-05-09T08:26:26.752Z,44.75
2018-05-09T08:27:26.729Z,43.30
2018-05-09T08:28:26.710Z,40.88
2018-05-09T08:29:26.685Z,41.97
2018-05-09T08:30:26.696Z,43.99
2018-05-09T08:31:26.641Z,44.67
2018-05-09T08:32:26.624Z,40.13
2018-05-09T08:33:26.595Z,41.67
2018-05-09T08:34:26.575Z,42.07
2018-05-09T08:35:26.553Z,43.51
2018-05-09T08:36:26.530Z,41.87
2018-05-09T08:37:26.509Z,44.29
2018-05-09T08:38:26.490Z,43.71
2018-05-09T08:39:26.471Z,44.09
2018-05-09T08:40:26.442Z,44.09
2018-05-09T08:41:26.423Z,41.67
2018-05-09T08:42:26.403Z,41.67
2018-05-09T08:43:26.482Z,43.80
2018-05-09T08:44:26.363Z,42.25
2018-05-09T08:45:26.339Z,40.81
2018-05-09T08:46:26.316Z,40.23
2018-05-09T08:47:26.291Z,42.28
2018-05-09T08:48:26.269Z,42.08
2018-05-09T08:49:26.296Z,42.57
2018-05-09T08:50:26.227Z,39.28
2018-05-09T08:51:26.206Z,40.05
2018-05-09T08:52:26.184Z,40.83
2018-05-09T08:53:26.160Z,42.37
2018-05-09T08:54:26.140Z,42.08
2018-05-09T08:55:26.133Z,43.15
2018-05-09T08:56:26.102Z,43.34
2018-05-09T08:57:26.078Z,42.47
2018-05-09T08:58:26.054Z,41.60
2018-05-09T08:59:26.035Z,40.73
2018-05-09T09:00:26.009Z,44.02
2018-05-09T09:01:25.986Z,42.86
2018-05-09T09:02:25.970Z,41.21
2018-05-09T09:03:25.941Z,38.31
2018-05-09T09:04:26.003Z,39.28
2018-05-09T09:05:25.900Z,41.41
2018-05-09T09:06:25.883Z,41.31
2018-05-09T09:07:25.864Z,39.09
2018-05-09T09:08:25.834Z,38.89
2018-05-09T09:09:25.814Z,38.60
2018-05-09T09:10:25.794Z,37.82
2018-05-09T09:11:25.771Z,36.76
2018-05-09T09:12:25.753Z,37.46
2018-05-09T09:13:25.734Z,38.50
2018-05-09T09:14:25.803Z,38.23
2018-05-09T09:15:25.698Z,35.81
2018-05-09T09:16:25.663Z,35.13
2018-05-09T09:17:25.686Z,38.91
2018-05-09T09:18:25.618Z,39.11
2018-05-09T09:19:25.605Z,35.91
2018-05-09T09:20:25.581Z,35.42
2018-05-09T09:21:25.561Z,35.91
2018-05-09T09:22:25.553Z,36.98
2018-05-09T09:23:25.572Z,37.17
2018-05-09T09:24:25.490Z,36.98
2018-05-09T09:25:25.472Z,38.13
2018-05-09T09:26:25.443Z,37.26
2018-05-09T09:27:25.420Z,37.46
2018-05-09T09:28:25.407Z,37.36
2018-05-09T09:29:25.387Z,37.46
2018-05-09T09:30:25.358Z,37.55
2018-05-09T09:31:25.342Z,39.69
2018-05-09T09:32:25.315Z,39.11
2018-05-09T09:33:25.296Z,38.62
2018-05-09T09:34:25.285Z,38.23
2018-05-09T09:35:25.249Z,38.23
2018-05-09T09:36:25.235Z,38.04
2018-05-09T09:37:25.210Z,38.04
2018-05-09T09:38:25.192Z,37.85
2018-05-09T09:39:25.190Z,38.53
2018-05-09T09:40:25.153Z,35.52
2018-05-09T09:41:25.159Z,38.71
2018-05-09T09:42:25.104Z,40.36
2018-05-09T09:43:25.080Z,39.78
2018-05-09T09:44:25.065Z,39.59
2018-05-09T09:45:25.038Z,37.94
2018-05-09T09:46:25.017Z,39.49
2018-05-09T09:47:24.996Z,40.07
2018-05-09T09:48:24.970Z,39.51
2018-05-09T09:49:24.953Z,37.07
2018-05-09T09:50:24.927Z,38.73
2018-05-09T09:51:24.905Z,37.28
2018-05-09T09:52:24.887Z,35.44
2018-05-09T09:53:24.867Z,38.45
2018-05-09T09:54:24.837Z,39.70
2018-05-09T09:55:24.826Z,39.70
2018-05-09T09:56:24.807Z,37.57
2018-05-09T09:57:24.775Z,40.19
2018-05-09T09:58:24.759Z,38.35
2018-05-09T09:59:24.730Z,40.38
2018-05-09T10:00:24.717Z,40.67
2018-05-09T10:01:24.689Z,40.67
2018-05-09T10:02:24.674Z,40.09
2018-05-09T10:03:24.653Z,37.77
2018-05-09T10:04:24.634Z,35.25
2018-05-09T10:05:24.614Z,34.38
2018-05-09T10:06:24.579Z,34.57
2018-05-09T10:07:24.559Z,37.30
2018-05-09T10:08:24.547Z,34.88
2018-05-09T10:09:24.515Z,34.39
2018-05-09T10:10:24.502Z,35.94
2018-05-09T10:11:24.482Z,37.01
2018-05-09T10:12:24.452Z,37.59
2018-05-09T10:13:24.438Z,38.56
2018-05-09T10:14:24.413Z,37.59
2018-05-09T10:15:24.394Z,36.91
2018-05-09T10:16:24.393Z,37.59
2018-05-09T10:17:24.353Z,37.49
2018-05-09T10:18:24.326Z,37.40
2018-05-09T10:19:24.304Z,37.79
2018-05-09T10:20:24.291Z,36.82
2018-05-09T10:21:24.263Z,34.39
2018-05-09T10:22:24.246Z,36.52
2018-05-09T10:23:24.217Z,37.98
2018-05-09T10:24:24.200Z,35.46
2018-05-09T10:25:24.182Z,36.04
2018-05-09T10:26:24.162Z,34.69
2018-05-09T10:27:24.133Z,34.61
2018-05-09T10:28:24.112Z,35.07
2018-05-09T10:29:24.095Z,36.91
2018-05-09T10:30:24.071Z,37.49
2018-05-09T10:31:24.125Z,35.77
2018-05-09T10:32:24.028Z,37.32
2018-05-09T10:33:24.005Z,36.74
2018-05-09T10:34:23.993Z,36.25
2018-05-09T10:35:23.971Z,35.96
2018-05-09T10:36:23.941Z,36.06
2018-05-09T10:37:23.927Z,35.96
2018-05-09T10:38:23.904Z,35.67
2018-05-09T10:39:23.876Z,35.57
2018-05-09T10:40:23.863Z,35.57
2018-05-09T10:41:23.841Z,36.08
2018-05-09T10:42:23.822Z,35.98
2018-05-09T10:43:23.795Z,36.27
2018-05-09T10:44:23.769Z,35.59
2018-05-09T10:45:23.758Z,36.08
2018-05-09T10:46:23.727Z,35.49
2018-05-09T10:47:23.765Z,34.81
2018-05-09T10:48:23.684Z,36.08
2018-05-09T10:49:23.669Z,36.36
2018-05-09T10:50:23.649Z,37.05
2018-05-09T10:51:23.627Z,35.98
2018-05-09T10:52:23.606Z,35.98
2018-05-09T10:53:23.583Z,36.66
2018-05-09T10:54:23.567Z,36.85
2018-05-09T10:55:23.542Z,36.66
2018-05-09T10:56:23.523Z,35.98
2018-05-09T10:57:23.506Z,37.05
2018-05-09T10:58:23.477Z,36.85
2018-05-09T10:59:23.458Z,36.08
2018-05-09T11:00:23.436Z,33.36
2018-05-09T11:01:23.413Z,33.84
2018-05-09T11:02:23.401Z,32.87
2018-05-09T11:03:23.371Z,33.46
2018-05-09T11:04:23.356Z,33.46
2018-05-09T11:05:23.333Z,33.94
2018-05-09T11:06:23.311Z,33.65
2018-05-09T11:07:23.305Z,33.26
2018-05-09T11:08:23.269Z,32.89
2018-05-09T11:09:23.246Z,33.38
2018-05-09T11:10:23.255Z,34.16
2018-05-09T11:11:23.201Z,34.54
2018-05-09T11:12:23.190Z,34.25
2018-05-09T11:13:23.159Z,34.35
2018-05-09T11:14:23.147Z,32.50
2018-05-09T11:15:23.129Z,32.89
2018-05-09T11:16:23.095Z,33.47
2018-05-09T11:17:23.085Z,32.41
2018-05-09T11:18:23.057Z,34.64
2018-05-09T11:19:23.037Z,33.47
2018-05-09T11:20:23.086Z,33.57
2018-05-09T11:21:22.996Z,34.83
2018-05-09T11:22:22.976Z,35.53
2018-05-09T11:23:22.948Z,34.93
2018-05-09T11:24:22.941Z,33.78
2018-05-09T11:25:22.915Z,34.17
2018-05-09T11:26:22.888Z,33.01
2018-05-09T11:27:22.866Z,32.62
2018-05-09T11:28:22.856Z,33.98
2018-05-09T11:29:22.830Z,34.17
2018-05-09T11:30:22.806Z,33.20
2018-05-09T11:31:22.794Z,34.19
2018-05-09T11:32:22.763Z,34.28
2018-05-09T11:33:22.744Z,34.67
2018-05-09T11:34:22.728Z,34.09
2018-05-09T11:35:22.701Z,34.77
2018-05-09T11:36:22.681Z,36.04
2018-05-09T11:37:22.729Z,35.55
2018-05-09T11:38:22.637Z,35.55
2018-05-09T11:39:22.622Z,33.90
2018-05-09T11:40:22.600Z,31.37
2018-05-09T11:41:22.575Z,30.30
2018-05-09T11:42:22.557Z,31.66
2018-05-09T11:43:22.542Z,32.05
2018-05-09T11:44:22.520Z,31.57
2018-05-09T11:45:22.499Z,31.27
2018-05-09T11:46:22.477Z,32.64
2018-05-09T11:47:22.458Z,33.22
2018-05-09T11:48:22.436Z,33.41
2018-05-09T11:49:22.421Z,33.61
2018-05-09T11:50:22.394Z,34.28
2018-05-09T11:51:22.369Z,35.25
2018-05-09T11:52:22.352Z,35.55
2018-05-09T11:53:22.329Z,34.48
2018-05-09T11:54:22.320Z,33.91
2018-05-09T11:55:22.696Z,33.02
2018-05-09T11:56:22.288Z,32.05
2018-05-09T11:57:22.256Z,30.98
2018-05-09T11:58:22.231Z,33.41
2018-05-09T11:59:22.213Z,33.31
2018-05-09T12:00:22.196Z,33.70
2018-05-09T12:01:22.170Z,33.62
2018-05-09T12:02:22.327Z,34.69
2018-05-09T12:03:22.131Z,33.23
2018-05-09T12:04:22.108Z,34.30
2018-05-09T12:05:22.085Z,31.87
2018-05-09T12:06:22.077Z,31.38
2018-05-09T12:07:22.051Z,32.86
2018-05-09T12:08:22.027Z,33.15
2018-05-09T12:09:22.013Z,33.25
2018-05-09T12:10:22.019Z,32.96
2018-05-09T12:11:21.960Z,32.67
2018-05-09T12:12:21.951Z,34.82
2018-05-09T12:13:21.921Z,35.41
2018-05-09T12:14:21.901Z,34.24
2018-05-09T12:15:21.886Z,34.63
2018-05-09T12:16:21.859Z,32.97
2018-05-09T12:17:21.841Z,32.59
2018-05-09T12:18:21.824Z,32.60
2018-05-09T12:19:21.798Z,32.70
2018-05-09T12:20:21.791Z,32.40
2018-05-09T12:21:21.765Z,32.40
2018-05-09T12:22:21.740Z,32.50
2018-05-09T12:23:21.728Z,32.39
2018-05-09T12:24:21.708Z,32.10
2018-05-09T12:25:21.680Z,32.29
2018-05-09T12:26:21.673Z,32.59
2018-05-09T12:27:21.640Z,32.70
2018-05-09T12:28:21.623Z,32.99
2018-05-09T12:29:21.607Z,34.25
2018-05-09T12:30:21.583Z,32.89
2018-05-09T12:31:21.567Z,32.40
2018-05-09T12:32:21.544Z,33.09
2018-05-09T12:33:21.525Z,33.48
2018-05-09T12:34:21.500Z,33.58
2018-05-09T12:35:21.481Z,33.18
2018-05-09T12:36:21.500Z,33.58
2018-05-09T12:37:21.445Z,33.48
2018-05-09T12:38:21.424Z,31.63
2018-05-09T12:39:21.408Z,32.50
2018-05-09T12:40:21.381Z,31.63
2018-05-09T12:41:21.369Z,32.21
2018-05-09T12:42:21.342Z,32.02
2018-05-09T12:43:21.328Z,32.31
2018-05-09T12:44:21.309Z,32.21
2018-05-09T12:45:21.284Z,32.60
2018-05-09T12:46:21.263Z,32.50
2018-05-09T12:47:21.254Z,33.38
2018-05-09T12:48:21.224Z,32.99
2018-05-09T12:49:21.265Z,31.53
2018-05-09T12:50:21.180Z,31.14
2018-05-09T12:51:21.162Z,30.55
2018-05-09T12:52:21.157Z,31.35